sensor_id;sensor_type;location;lat;lon;timestamp;P1;durP1;ratioP1;P2;durP2;ratioP2
912;SDS011;443;51.448;7.028;2023-10-09T00:00:33;23.93;;;8.07;;
912;SDS011;443;51.448;7.028;2023-10-09T00:03:20;12.73;;;7.90;;
912;SDS011;443;51.448;7.028;2023-10-09T00:05:49;17.30;;;8.30;;
912;SDS011;443;51.448;7.028;2023-10-09T00:08:18;13.40;;;8.50;;
912;SDS011;443;51.448;7.028;2023-10-09T00:10:47;14.90;;;7.97;;
912;SDS011;443;51.448;7.028;2023-10-09T00:13:19;12.93;;;7.17;;
912;SDS011;443;51.448;7.028;2023-10-09T00:15:50;14.70;;;8.70;;
912;SDS011;443;51.448;7.028;2023-10-09T00:18:18;12.87;;;6.97;;
912;SDS011;443;51.448;7.028;2023-10-09T00:20:53;12.83;;;7.23;;
912;SDS011;443;51.448;7.028;2023-10-09T00:23:20;10.97;;;7.50;;
912;SDS011;443;51.448;7.028;2023-10-09T00:25:50;17.70;;;7.43;;
912;SDS011;443;51.448;7.028;2023-10-09T00:28:33;13.63;;;7.27;;
912;SDS011;443;51.448;7.028;2023-10-09T00:31:04;11.90;;;7.73;;
912;SDS011;443;51.448;7.028;2023-10-09T00:33:32;13.13;;;8.57;;
912;SDS011;443;51.448;7.028;2023-10-09T00:36:01;13.17;;;7.73;;
912;SDS011;443;51.448;7.028;2023-10-09T00:38:35;15.03;;;6.90;;
912;SDS011;443;51.448;7.028;2023-10-09T00:41:04;13.47;;;7.20;;
912;SDS011;443;51.448;7.028;2023-10-09T00:43:36;8.67;;;5.23;;
912;SDS011;443;51.448;7.028;2023-10-09T00:46:05;10.90;;;6.03;;
912;SDS011;443;51.448;7.028;2023-10-09T00:48:37;12.73;;;7.10;;
912;SDS011;443;51.448;7.028;2023-10-09T00:51:06;13.60;;;6.90;;
912;SDS011;443;51.448;7.028;2023-10-09T00:53:42;10.80;;;6.30;;
912;SDS011;443;51.448;7.028;2023-10-09T00:56:10;9.90;;;6.00;;
912;SDS011;443;51.448;7.028;2023-10-09T00:58:43;12.87;;;6.40;;
912;SDS011;443;51.448;7.028;2023-10-09T01:04:22;8.63;;;6.00;;
912;SDS011;443;51.448;7.028;2023-10-09T01:06:51;11.13;;;6.13;;
912;SDS011;443;51.448;7.028;2023-10-09T01:09:30;15.53;;;7.90;;
912;SDS011;443;51.448;7.028;2023-10-09T01:12:02;15.33;;;7.00;;
912;SDS011;443;51.448;7.028;2023-10-09T01:14:29;15.13;;;7.53;;
912;SDS011;443;51.448;7.028;2023-10-09T01:17:01;9.73;;;5.33;;
912;SDS011;443;51.448;7.028;2023-10-09T01:19:30;8.97;;;6.00;;
912;SDS011;443;51.448;7.028;2023-10-09T01:21:58;10.13;;;6.13;;
912;SDS011;443;51.448;7.028;2023-10-09T01:24:31;7.70;;;5.83;;
912;SDS011;443;51.448;7.028;2023-10-09T01:27:00;15.40;;;6.20;;
912;SDS011;443;51.448;7.028;2023-10-09T01:29:30;11.23;;;6.87;;
912;SDS011;443;51.448;7.028;2023-10-09T01:31:57;10.50;;;6.03;;
912;SDS011;443;51.448;7.028;2023-10-09T01:34:26;11.53;;;7.13;;
912;SDS011;443;51.448;7.028;2023-10-09T01:37:03;12.20;;;6.57;;
912;SDS011;443;51.448;7.028;2023-10-09T01:39:38;11.67;;;7.00;;
912;SDS011;443;51.448;7.028;2023-10-09T01:42:07;9.33;;;6.13;;
912;SDS011;443;51.448;7.028;2023-10-09T01:44:35;8.30;;;5.60;;
912;SDS011;443;51.448;7.028;2023-10-09T01:47:08;10.53;;;6.60;;
912;SDS011;443;51.448;7.028;2023-10-09T01:49:39;12.90;;;6.77;;
912;SDS011;443;51.448;7.028;2023-10-09T01:52:08;10.73;;;5.27;;
912;SDS011;443;51.448;7.028;2023-10-09T01:54:36;12.70;;;7.60;;
912;SDS011;443;51.448;7.028;2023-10-09T01:57:05;13.20;;;7.23;;
912;SDS011;443;51.448;7.028;2023-10-09T01:59:35;8.47;;;6.20;;
912;SDS011;443;51.448;7.028;2023-10-09T02:02:08;10.07;;;6.10;;
912;SDS011;443;51.448;7.028;2023-10-09T02:04:49;10.87;;;6.70;;
912;SDS011;443;51.448;7.028;2023-10-09T02:07:16;8.60;;;5.90;;
912;SDS011;443;51.448;7.028;2023-10-09T02:09:53;10.27;;;6.47;;
912;SDS011;443;51.448;7.028;2023-10-09T02:12:21;9.97;;;6.07;;
912;SDS011;443;51.448;7.028;2023-10-09T02:14:49;11.87;;;7.37;;
912;SDS011;443;51.448;7.028;2023-10-09T02:17:19;10.30;;;5.80;;
912;SDS011;443;51.448;7.028;2023-10-09T02:19:49;12.97;;;6.30;;
912;SDS011;443;51.448;7.028;2023-10-09T02:22:17;13.13;;;7.40;;
912;SDS011;443;51.448;7.028;2023-10-09T02:24:44;8.50;;;6.03;;
912;SDS011;443;51.448;7.028;2023-10-09T02:27:24;16.50;;;6.40;;
912;SDS011;443;51.448;7.028;2023-10-09T02:30:12;11.17;;;5.87;;
912;SDS011;443;51.448;7.028;2023-10-09T02:32:44;8.20;;;6.03;;
912;SDS011;443;51.448;7.028;2023-10-09T02:35:17;9.63;;;6.23;;
912;SDS011;443;51.448;7.028;2023-10-09T02:37:56;10.33;;;6.40;;
912;SDS011;443;51.448;7.028;2023-10-09T02:40:26;8.40;;;5.43;;
912;SDS011;443;51.448;7.028;2023-10-09T02:42:58;11.03;;;5.50;;
912;SDS011;443;51.448;7.028;2023-10-09T02:45:25;10.40;;;6.20;;
912;SDS011;443;51.448;7.028;2023-10-09T02:48:00;9.60;;;5.60;;
912;SDS011;443;51.448;7.028;2023-10-09T02:50:35;8.63;;;6.40;;
912;SDS011;443;51.448;7.028;2023-10-09T02:53:03;8.77;;;5.93;;
912;SDS011;443;51.448;7.028;2023-10-09T02:55:35;11.30;;;6.10;;
912;SDS011;443;51.448;7.028;2023-10-09T02:58:05;14.73;;;7.47;;
912;SDS011;443;51.448;7.028;2023-10-09T03:00:36;8.63;;;5.90;;
912;SDS011;443;51.448;7.028;2023-10-09T03:03:04;6.50;;;4.90;;
912;SDS011;443;51.448;7.028;2023-10-09T03:05:32;8.53;;;5.57;;
912;SDS011;443;51.448;7.028;2023-10-09T03:08:02;8.67;;;6.00;;
912;SDS011;443;51.448;7.028;2023-10-09T03:10:29;12.93;;;6.97;;
912;SDS011;443;51.448;7.028;2023-10-09T03:12:59;16.73;;;6.73;;
912;SDS011;443;51.448;7.028;2023-10-09T03:15:29;11.13;;;5.90;;
912;SDS011;443;51.448;7.028;2023-10-09T03:18:00;18.10;;;7.07;;
912;SDS011;443;51.448;7.028;2023-10-09T03:20:27;8.70;;;6.80;;
912;SDS011;443;51.448;7.028;2023-10-09T03:22:55;11.53;;;5.50;;
912;SDS011;443;51.448;7.028;2023-10-09T03:25:22;8.90;;;6.90;;
912;SDS011;443;51.448;7.028;2023-10-09T03:27:50;11.37;;;7.07;;
912;SDS011;443;51.448;7.028;2023-10-09T03:30:18;10.87;;;6.70;;
912;SDS011;443;51.448;7.028;2023-10-09T03:32:49;14.10;;;6.23;;
912;SDS011;443;51.448;7.028;2023-10-09T03:35:17;8.73;;;5.43;;
912;SDS011;443;51.448;7.028;2023-10-09T03:37:50;8.17;;;4.50;;
912;SDS011;443;51.448;7.028;2023-10-09T03:40:22;11.70;;;7.80;;
912;SDS011;443;51.448;7.028;2023-10-09T03:42:49;10.60;;;5.37;;
912;SDS011;443;51.448;7.028;2023-10-09T03:45:16;8.30;;;5.90;;
912;SDS011;443;51.448;7.028;2023-10-09T03:47:52;6.83;;;5.77;;
912;SDS011;443;51.448;7.028;2023-10-09T03:50:23;11.60;;;5.77;;
912;SDS011;443;51.448;7.028;2023-10-09T03:52:52;7.63;;;4.47;;
912;SDS011;443;51.448;7.028;2023-10-09T03:55:20;12.03;;;5.97;;
912;SDS011;443;51.448;7.028;2023-10-09T03:57:52;13.10;;;7.20;;
912;SDS011;443;51.448;7.028;2023-10-09T04:00:22;6.60;;;5.47;;
912;SDS011;443;51.448;7.028;2023-10-09T04:02:55;11.73;;;5.73;;
912;SDS011;443;51.448;7.028;2023-10-09T04:05:23;11.87;;;6.10;;
912;SDS011;443;51.448;7.028;2023-10-09T04:07:50;13.43;;;5.40;;
912;SDS011;443;51.448;7.028;2023-10-09T04:10:18;7.73;;;5.17;;
912;SDS011;443;51.448;7.028;2023-10-09T04:13:03;9.83;;;5.40;;
912;SDS011;443;51.448;7.028;2023-10-09T04:15:34;9.77;;;6.20;;
912;SDS011;443;51.448;7.028;2023-10-09T04:18:02;7.90;;;5.27;;
912;SDS011;443;51.448;7.028;2023-10-09T04:20:30;7.60;;;5.10;;
912;SDS011;443;51.448;7.028;2023-10-09T04:23:15;10.50;;;6.97;;
912;SDS011;443;51.448;7.028;2023-10-09T04:25:58;9.63;;;5.57;;
912;SDS011;443;51.448;7.028;2023-10-09T04:28:25;8.50;;;5.50;;
912;SDS011;443;51.448;7.028;2023-10-09T04:30:54;11.60;;;6.03;;
912;SDS011;443;51.448;7.028;2023-10-09T04:33:25;8.30;;;6.00;;
912;SDS011;443;51.448;7.028;2023-10-09T04:36:06;8.50;;;5.50;;
912;SDS011;443;51.448;7.028;2023-10-09T04:38:46;13.70;;;5.73;;
912;SDS011;443;51.448;7.028;2023-10-09T04:41:20;11.97;;;6.03;;
912;SDS011;443;51.448;7.028;2023-10-09T04:43:57;10.33;;;6.23;;
912;SDS011;443;51.448;7.028;2023-10-09T04:46:43;10.30;;;5.83;;
912;SDS011;443;51.448;7.028;2023-10-09T04:49:32;12.37;;;6.37;;
912;SDS011;443;51.448;7.028;2023-10-09T04:52:14;14.30;;;5.90;;
912;SDS011;443;51.448;7.028;2023-10-09T04:54:56;7.70;;;4.50;;
912;SDS011;443;51.448;7.028;2023-10-09T04:57:41;7.90;;;6.00;;
912;SDS011;443;51.448;7.028;2023-10-09T05:00:26;12.27;;;4.93;;
912;SDS011;443;51.448;7.028;2023-10-09T05:03:12;8.00;;;4.80;;
912;SDS011;443;51.448;7.028;2023-10-09T05:05:51;10.63;;;5.83;;
912;SDS011;443;51.448;7.028;2023-10-09T05:08:25;7.50;;;3.43;;
912;SDS011;443;51.448;7.028;2023-10-09T05:10:55;11.37;;;6.10;;
912;SDS011;443;51.448;7.028;2023-10-09T05:13:40;10.13;;;4.50;;
912;SDS011;443;51.448;7.028;2023-10-09T05:16:10;7.57;;;6.00;;
912;SDS011;443;51.448;7.028;2023-10-09T05:18:43;7.80;;;5.43;;
912;SDS011;443;51.448;7.028;2023-10-09T05:21:11;8.30;;;6.00;;
912;SDS011;443;51.448;7.028;2023-10-09T05:24:11;11.83;;;5.80;;
912;SDS011;443;51.448;7.028;2023-10-09T05:26:49;16.03;;;4.90;;
912;SDS011;443;51.448;7.028;2023-10-09T05:29:37;11.70;;;5.60;;
912;SDS011;443;51.448;7.028;2023-10-09T05:32:13;11.67;;;6.40;;
912;SDS011;443;51.448;7.028;2023-10-09T05:34:53;9.47;;;5.43;;
912;SDS011;443;51.448;7.028;2023-10-09T05:37:41;10.17;;;6.23;;
912;SDS011;443;51.448;7.028;2023-10-09T05:40:12;7.77;;;5.90;;
912;SDS011;443;51.448;7.028;2023-10-09T05:42:49;10.23;;;6.13;;
912;SDS011;443;51.448;7.028;2023-10-09T05:45:25;8.47;;;5.20;;
912;SDS011;443;51.448;7.028;2023-10-09T05:48:24;11.00;;;5.57;;
912;SDS011;443;51.448;7.028;2023-10-09T05:51:27;9.23;;;6.57;;
912;SDS011;443;51.448;7.028;2023-10-09T05:54:09;14.90;;;6.23;;
912;SDS011;443;51.448;7.028;2023-10-09T05:56:54;10.33;;;5.63;;
912;SDS011;443;51.448;7.028;2023-10-09T05:59:55;17.50;;;8.17;;
912;SDS011;443;51.448;7.028;2023-10-09T06:02:39;11.20;;;5.60;;
912;SDS011;443;51.448;7.028;2023-10-09T06:05:38;10.50;;;5.30;;
912;SDS011;443;51.448;7.028;2023-10-09T06:08:18;9.10;;;6.13;;
912;SDS011;443;51.448;7.028;2023-10-09T06:10:50;11.60;;;6.10;;
912;SDS011;443;51.448;7.028;2023-10-09T06:13:30;9.17;;;5.63;;
912;SDS011;443;51.448;7.028;2023-10-09T06:16:05;8.47;;;5.57;;
912;SDS011;443;51.448;7.028;2023-10-09T06:18:54;8.23;;;5.33;;
912;SDS011;443;51.448;7.028;2023-10-09T06:21:33;9.83;;;5.90;;
912;SDS011;443;51.448;7.028;2023-10-09T06:24:06;10.43;;;5.63;;
912;SDS011;443;51.448;7.028;2023-10-09T06:26:41;8.77;;;5.43;;
912;SDS011;443;51.448;7.028;2023-10-09T06:29:33;13.80;;;5.43;;
912;SDS011;443;51.448;7.028;2023-10-09T06:32:00;9.60;;;6.90;;
912;SDS011;443;51.448;7.028;2023-10-09T06:34:59;10.50;;;6.70;;
912;SDS011;443;51.448;7.028;2023-10-09T06:37:41;10.53;;;7.37;;
912;SDS011;443;51.448;7.028;2023-10-09T06:40:23;9.93;;;7.17;;
912;SDS011;443;51.448;7.028;2023-10-09T06:43:08;11.30;;;6.07;;
912;SDS011;443;51.448;7.028;2023-10-09T06:45:42;8.67;;;6.63;;
912;SDS011;443;51.448;7.028;2023-10-09T06:48:19;8.53;;;5.73;;
912;SDS011;443;51.448;7.028;2023-10-09T06:51:05;7.57;;;5.73;;
912;SDS011;443;51.448;7.028;2023-10-09T06:53:38;8.23;;;6.57;;
912;SDS011;443;51.448;7.028;2023-10-09T06:56:23;13.10;;;6.60;;
912;SDS011;443;51.448;7.028;2023-10-09T06:59:11;10.10;;;7.13;;
912;SDS011;443;51.448;7.028;2023-10-09T07:01:41;10.00;;;6.73;;
912;SDS011;443;51.448;7.028;2023-10-09T07:04:09;11.43;;;7.40;;
912;SDS011;443;51.448;7.028;2023-10-09T07:06:43;11.90;;;7.13;;
912;SDS011;443;51.448;7.028;2023-10-09T07:09:18;9.77;;;6.73;;
912;SDS011;443;51.448;7.028;2023-10-09T07:11:46;10.53;;;7.20;;
912;SDS011;443;51.448;7.028;2023-10-09T07:14:24;11.43;;;7.17;;
912;SDS011;443;51.448;7.028;2023-10-09T07:17:17;12.40;;;8.13;;
912;SDS011;443;51.448;7.028;2023-10-09T07:20:09;8.53;;;5.70;;
912;SDS011;443;51.448;7.028;2023-10-09T07:22:40;11.50;;;6.93;;
912;SDS011;443;51.448;7.028;2023-10-09T07:25:21;14.77;;;8.33;;
912;SDS011;443;51.448;7.028;2023-10-09T07:28:08;12.60;;;7.00;;
912;SDS011;443;51.448;7.028;2023-10-09T07:30:55;10.50;;;6.20;;
912;SDS011;443;51.448;7.028;2023-10-09T07:33:23;8.43;;;6.50;;
912;SDS011;443;51.448;7.028;2023-10-09T07:36:16;9.67;;;6.13;;
912;SDS011;443;51.448;7.028;2023-10-09T07:38:54;11.83;;;7.10;;
912;SDS011;443;51.448;7.028;2023-10-09T07:41:21;10.10;;;6.60;;
912;SDS011;443;51.448;7.028;2023-10-09T07:44:04;10.80;;;7.07;;
912;SDS011;443;51.448;7.028;2023-10-09T07:47:01;12.13;;;7.90;;
912;SDS011;443;51.448;7.028;2023-10-09T07:49:47;12.03;;;7.27;;
912;SDS011;443;51.448;7.028;2023-10-09T07:52:16;11.13;;;7.47;;
912;SDS011;443;51.448;7.028;2023-10-09T07:54:46;10.43;;;7.10;;
912;SDS011;443;51.448;7.028;2023-10-09T07:57:18;12.80;;;7.47;;
912;SDS011;443;51.448;7.028;2023-10-09T07:59:52;11.80;;;6.57;;
912;SDS011;443;51.448;7.028;2023-10-09T08:02:28;11.10;;;6.37;;
912;SDS011;443;51.448;7.028;2023-10-09T08:04:58;4.53;;;3.30;;
912;SDS011;443;51.448;7.028;2023-10-09T08:07:43;9.87;;;6.73;;
912;SDS011;443;51.448;7.028;2023-10-09T08:10:20;10.50;;;5.80;;
912;SDS011;443;51.448;7.028;2023-10-09T08:13:04;10.77;;;7.33;;
912;SDS011;443;51.448;7.028;2023-10-09T08:15:58;12.63;;;7.67;;
912;SDS011;443;51.448;7.028;2023-10-09T08:18:29;14.00;;;8.47;;
912;SDS011;443;51.448;7.028;2023-10-09T08:20:56;9.70;;;6.90;;
912;SDS011;443;51.448;7.028;2023-10-09T08:23:41;15.43;;;7.70;;
912;SDS011;443;51.448;7.028;2023-10-09T08:26:17;11.33;;;7.30;;
912;SDS011;443;51.448;7.028;2023-10-09T08:28:55;11.60;;;6.60;;
912;SDS011;443;51.448;7.028;2023-10-09T08:31:42;11.17;;;7.20;;
912;SDS011;443;51.448;7.028;2023-10-09T08:34:12;9.73;;;5.77;;
912;SDS011;443;51.448;7.028;2023-10-09T08:36:49;13.83;;;8.20;;
912;SDS011;443;51.448;7.028;2023-10-09T08:39:17;14.90;;;8.43;;
912;SDS011;443;51.448;7.028;2023-10-09T08:41:50;11.93;;;7.37;;
912;SDS011;443;51.448;7.028;2023-10-09T08:44:18;15.23;;;8.30;;
912;SDS011;443;51.448;7.028;2023-10-09T08:46:49;16.73;;;9.33;;
912;SDS011;443;51.448;7.028;2023-10-09T08:49:16;12.07;;;7.83;;
912;SDS011;443;51.448;7.028;2023-10-09T08:51:43;8.77;;;6.10;;
912;SDS011;443;51.448;7.028;2023-10-09T08:54:12;11.40;;;7.63;;
912;SDS011;443;51.448;7.028;2023-10-09T08:56:40;12.17;;;7.53;;
912;SDS011;443;51.448;7.028;2023-10-09T08:59:14;11.07;;;6.47;;
912;SDS011;443;51.448;7.028;2023-10-09T09:01:43;12.47;;;6.33;;
912;SDS011;443;51.448;7.028;2023-10-09T09:04:11;11.30;;;7.00;;
912;SDS011;443;51.448;7.028;2023-10-09T09:07:02;12.73;;;6.87;;
912;SDS011;443;51.448;7.028;2023-10-09T09:09:29;7.83;;;5.63;;
912;SDS011;443;51.448;7.028;2023-10-09T09:11:57;11.77;;;6.97;;
912;SDS011;443;51.448;7.028;2023-10-09T09:14:34;12.73;;;6.60;;
912;SDS011;443;51.448;7.028;2023-10-09T09:17:02;12.17;;;7.80;;
912;SDS011;443;51.448;7.028;2023-10-09T09:19:32;12.57;;;7.57;;
912;SDS011;443;51.448;7.028;2023-10-09T09:22:03;13.10;;;7.13;;
912;SDS011;443;51.448;7.028;2023-10-09T09:24:37;8.57;;;6.77;;
912;SDS011;443;51.448;7.028;2023-10-09T09:27:10;12.13;;;7.27;;
912;SDS011;443;51.448;7.028;2023-10-09T09:29:43;11.57;;;6.20;;
912;SDS011;443;51.448;7.028;2023-10-09T09:32:18;7.53;;;4.60;;
912;SDS011;443;51.448;7.028;2023-10-09T09:34:56;17.93;;;7.87;;
912;SDS011;443;51.448;7.028;2023-10-09T09:37:26;6.70;;;4.00;;
912;SDS011;443;51.448;7.028;2023-10-09T09:39:55;15.40;;;6.50;;
912;SDS011;443;51.448;7.028;2023-10-09T09:42:25;11.17;;;6.10;;
912;SDS011;443;51.448;7.028;2023-10-09T09:44:56;13.73;;;7.90;;
912;SDS011;443;51.448;7.028;2023-10-09T09:47:26;11.60;;;8.17;;
912;SDS011;443;51.448;7.028;2023-10-09T09:49:57;13.23;;;7.97;;
912;SDS011;443;51.448;7.028;2023-10-09T09:52:30;10.77;;;6.27;;
912;SDS011;443;51.448;7.028;2023-10-09T09:55:03;10.30;;;6.20;;
912;SDS011;443;51.448;7.028;2023-10-09T09:57:39;14.33;;;7.27;;
912;SDS011;443;51.448;7.028;2023-10-09T10:00:10;13.13;;;7.90;;
912;SDS011;443;51.448;7.028;2023-10-09T10:02:53;12.83;;;6.53;;
912;SDS011;443;51.448;7.028;2023-10-09T10:05:24;11.03;;;7.37;;
912;SDS011;443;51.448;7.028;2023-10-09T10:07:55;12.90;;;7.30;;
912;SDS011;443;51.448;7.028;2023-10-09T10:10:33;12.57;;;6.67;;
912;SDS011;443;51.448;7.028;2023-10-09T10:13:02;12.10;;;3.60;;
912;SDS011;443;51.448;7.028;2023-10-09T10:18:22;13.77;;;8.37;;
912;SDS011;443;51.448;7.028;2023-10-09T10:23:41;11.13;;;7.47;;
912;SDS011;443;51.448;7.028;2023-10-09T10:26:18;10.33;;;6.13;;
912;SDS011;443;51.448;7.028;2023-10-09T10:31:52;12.53;;;8.33;;
912;SDS011;443;51.448;7.028;2023-10-09T10:34:21;10.90;;;8.10;;
912;SDS011;443;51.448;7.028;2023-10-09T10:36:51;14.57;;;7.40;;
912;SDS011;443;51.448;7.028;2023-10-09T10:39:23;12.57;;;7.97;;
912;SDS011;443;51.448;7.028;2023-10-09T10:42:05;9.67;;;7.30;;
912;SDS011;443;51.448;7.028;2023-10-09T10:44:34;12.50;;;7.70;;
912;SDS011;443;51.448;7.028;2023-10-09T10:47:03;15.17;;;9.70;;
912;SDS011;443;51.448;7.028;2023-10-09T10:49:42;11.23;;;7.83;;
912;SDS011;443;51.448;7.028;2023-10-09T10:52:21;12.23;;;7.60;;
912;SDS011;443;51.448;7.028;2023-10-09T10:54:48;13.73;;;8.60;;
912;SDS011;443;51.448;7.028;2023-10-09T10:57:29;12.60;;;7.40;;
912;SDS011;443;51.448;7.028;2023-10-09T11:00:18;10.90;;;7.90;;
912;SDS011;443;51.448;7.028;2023-10-09T11:02:59;13.70;;;9.00;;
912;SDS011;443;51.448;7.028;2023-10-09T11:05:39;9.87;;;6.87;;
912;SDS011;443;51.448;7.028;2023-10-09T11:08:10;13.63;;;8.00;;
912;SDS011;443;51.448;7.028;2023-10-09T11:10:38;10.03;;;6.10;;
912;SDS011;443;51.448;7.028;2023-10-09T11:13:20;13.23;;;5.53;;
912;SDS011;443;51.448;7.028;2023-10-09T11:16:00;6.70;;;4.87;;
912;SDS011;443;51.448;7.028;2023-10-09T11:18:53;12.80;;;8.03;;
912;SDS011;443;51.448;7.028;2023-10-09T11:21:22;13.83;;;7.87;;
912;SDS011;443;51.448;7.028;2023-10-09T11:23:57;16.00;;;7.43;;
912;SDS011;443;51.448;7.028;2023-10-09T11:26:24;9.20;;;7.40;;
912;SDS011;443;51.448;7.028;2023-10-09T11:29:05;16.20;;;7.10;;
912;SDS011;443;51.448;7.028;2023-10-09T11:31:38;5.87;;;3.10;;
912;SDS011;443;51.448;7.028;2023-10-09T11:34:17;9.23;;;6.37;;
912;SDS011;443;51.448;7.028;2023-10-09T11:36:53;7.40;;;4.60;;
912;SDS011;443;51.448;7.028;2023-10-09T11:39:24;15.20;;;8.47;;
912;SDS011;443;51.448;7.028;2023-10-09T11:42:01;9.63;;;7.83;;
912;SDS011;443;51.448;7.028;2023-10-09T11:44:39;9.90;;;7.07;;
912;SDS011;443;51.448;7.028;2023-10-09T11:47:09;9.77;;;7.00;;
912;SDS011;443;51.448;7.028;2023-10-09T11:49:50;12.33;;;8.20;;
912;SDS011;443;51.448;7.028;2023-10-09T11:52:36;11.60;;;7.63;;
912;SDS011;443;51.448;7.028;2023-10-09T11:55:34;10.10;;;7.20;;
912;SDS011;443;51.448;7.028;2023-10-09T11:58:03;15.23;;;8.33;;
912;SDS011;443;51.448;7.028;2023-10-09T12:00:31;14.00;;;7.50;;
912;SDS011;443;51.448;7.028;2023-10-09T12:03:09;14.47;;;8.03;;
912;SDS011;443;51.448;7.028;2023-10-09T12:05:41;13.77;;;7.63;;
912;SDS011;443;51.448;7.028;2023-10-09T12:08:09;12.40;;;7.83;;
912;SDS011;443;51.448;7.028;2023-10-09T12:10:40;15.20;;;8.33;;
912;SDS011;443;51.448;7.028;2023-10-09T12:13:07;4.77;;;3.37;;
912;SDS011;443;51.448;7.028;2023-10-09T12:15:34;12.17;;;8.00;;
912;SDS011;443;51.448;7.028;2023-10-09T12:18:04;15.30;;;7.53;;
912;SDS011;443;51.448;7.028;2023-10-09T12:20:34;10.90;;;7.40;;
912;SDS011;443;51.448;7.028;2023-10-09T12:23:02;16.10;;;7.60;;
912;SDS011;443;51.448;7.028;2023-10-09T12:25:31;9.70;;;6.53;;
912;SDS011;443;51.448;7.028;2023-10-09T12:27:59;11.17;;;7.80;;
912;SDS011;443;51.448;7.028;2023-10-09T12:30:27;12.73;;;8.07;;
912;SDS011;443;51.448;7.028;2023-10-09T12:32:54;11.97;;;6.97;;
912;SDS011;443;51.448;7.028;2023-10-09T12:35:22;6.90;;;4.43;;
912;SDS011;443;51.448;7.028;2023-10-09T12:37:50;12.23;;;7.37;;
912;SDS011;443;51.448;7.028;2023-10-09T12:40:17;13.80;;;8.07;;
912;SDS011;443;51.448;7.028;2023-10-09T12:42:49;9.57;;;5.60;;
912;SDS011;443;51.448;7.028;2023-10-09T12:45:21;11.07;;;6.77;;
912;SDS011;443;51.448;7.028;2023-10-09T12:47:51;12.83;;;7.97;;
912;SDS011;443;51.448;7.028;2023-10-09T12:50:19;9.83;;;6.90;;
912;SDS011;443;51.448;7.028;2023-10-09T12:52:53;10.83;;;7.50;;
912;SDS011;443;51.448;7.028;2023-10-09T12:55:20;13.50;;;8.27;;
912;SDS011;443;51.448;7.028;2023-10-09T12:57:56;8.50;;;6.40;;
912;SDS011;443;51.448;7.028;2023-10-09T13:00:32;12.77;;;7.67;;
912;SDS011;443;51.448;7.028;2023-10-09T13:03:02;14.53;;;8.43;;
912;SDS011;443;51.448;7.028;2023-10-09T13:05:41;9.90;;;6.43;;
912;SDS011;443;51.448;7.028;2023-10-09T13:08:17;17.77;;;7.50;;
912;SDS011;443;51.448;7.028;2023-10-09T13:10:46;10.47;;;6.67;;
912;SDS011;443;51.448;7.028;2023-10-09T13:13:19;11.23;;;8.23;;
912;SDS011;443;51.448;7.028;2023-10-09T13:15:47;12.27;;;8.17;;
912;SDS011;443;51.448;7.028;2023-10-09T13:18:14;13.50;;;10.40;;
912;SDS011;443;51.448;7.028;2023-10-09T13:20:41;7.47;;;4.60;;
912;SDS011;443;51.448;7.028;2023-10-09T13:23:07;13.43;;;8.20;;
912;SDS011;443;51.448;7.028;2023-10-09T13:25:39;13.60;;;7.57;;
912;SDS011;443;51.448;7.028;2023-10-09T13:28:06;6.00;;;3.87;;
912;SDS011;443;51.448;7.028;2023-10-09T13:30:37;6.43;;;3.03;;
912;SDS011;443;51.448;7.028;2023-10-09T13:33:15;16.83;;;6.80;;
912;SDS011;443;51.448;7.028;2023-10-09T13:35:46;13.87;;;8.67;;
912;SDS011;443;51.448;7.028;2023-10-09T13:38:15;10.83;;;8.30;;
912;SDS011;443;51.448;7.028;2023-10-09T13:40:42;13.40;;;6.70;;
912;SDS011;443;51.448;7.028;2023-10-09T13:43:09;14.67;;;8.67;;
912;SDS011;443;51.448;7.028;2023-10-09T13:45:41;10.53;;;7.50;;
912;SDS011;443;51.448;7.028;2023-10-09T13:48:15;11.30;;;8.50;;
912;SDS011;443;51.448;7.028;2023-10-09T13:50:45;15.50;;;9.50;;
912;SDS011;443;51.448;7.028;2023-10-09T13:53:12;16.30;;;10.43;;
912;SDS011;443;51.448;7.028;2023-10-09T13:55:40;12.17;;;7.83;;
912;SDS011;443;51.448;7.028;2023-10-09T13:58:09;21.23;;;9.23;;
912;SDS011;443;51.448;7.028;2023-10-09T14:00:38;15.97;;;10.57;;
912;SDS011;443;51.448;7.028;2023-10-09T14:03:07;16.27;;;9.27;;
912;SDS011;443;51.448;7.028;2023-10-09T14:05:39;17.33;;;10.83;;
912;SDS011;443;51.448;7.028;2023-10-09T14:08:17;17.57;;;11.77;;
912;SDS011;443;51.448;7.028;2023-10-09T14:10:47;15.27;;;9.43;;
912;SDS011;443;51.448;7.028;2023-10-09T14:13:13;15.83;;;9.47;;
912;SDS011;443;51.448;7.028;2023-10-09T14:15:41;9.80;;;6.30;;
912;SDS011;443;51.448;7.028;2023-10-09T14:18:11;16.50;;;9.60;;
912;SDS011;443;51.448;7.028;2023-10-09T14:20:37;12.90;;;9.13;;
912;SDS011;443;51.448;7.028;2023-10-09T14:23:06;15.90;;;9.87;;
912;SDS011;443;51.448;7.028;2023-10-09T14:25:35;16.13;;;11.07;;
912;SDS011;443;51.448;7.028;2023-10-09T14:28:04;15.50;;;9.83;;
912;SDS011;443;51.448;7.028;2023-10-09T14:30:33;12.53;;;9.00;;
912;SDS011;443;51.448;7.028;2023-10-09T14:33:07;10.10;;;8.40;;
912;SDS011;443;51.448;7.028;2023-10-09T14:35:37;14.47;;;10.00;;
912;SDS011;443;51.448;7.028;2023-10-09T14:38:07;15.67;;;9.70;;
912;SDS011;443;51.448;7.028;2023-10-09T14:40:40;9.37;;;4.10;;
912;SDS011;443;51.448;7.028;2023-10-09T14:43:07;16.60;;;10.47;;
912;SDS011;443;51.448;7.028;2023-10-09T14:45:43;13.00;;;8.90;;
912;SDS011;443;51.448;7.028;2023-10-09T14:48:13;16.07;;;9.23;;
912;SDS011;443;51.448;7.028;2023-10-09T14:50:47;14.10;;;9.20;;
912;SDS011;443;51.448;7.028;2023-10-09T14:53:15;13.70;;;9.73;;
912;SDS011;443;51.448;7.028;2023-10-09T14:55:42;15.13;;;10.67;;
912;SDS011;443;51.448;7.028;2023-10-09T14:58:10;22.03;;;12.47;;
912;SDS011;443;51.448;7.028;2023-10-09T15:00:37;15.97;;;11.57;;
912;SDS011;443;51.448;7.028;2023-10-09T15:03:11;13.60;;;9.97;;
912;SDS011;443;51.448;7.028;2023-10-09T15:05:39;14.83;;;10.40;;
912;SDS011;443;51.448;7.028;2023-10-09T15:08:08;20.47;;;12.93;;
912;SDS011;443;51.448;7.028;2023-10-09T15:10:36;17.97;;;10.80;;
912;SDS011;443;51.448;7.028;2023-10-09T15:13:11;14.80;;;10.73;;
912;SDS011;443;51.448;7.028;2023-10-09T15:15:40;15.23;;;10.83;;
912;SDS011;443;51.448;7.028;2023-10-09T15:18:07;15.97;;;11.10;;
912;SDS011;443;51.448;7.028;2023-10-09T15:20:37;12.20;;;7.57;;
912;SDS011;443;51.448;7.028;2023-10-09T15:23:04;16.67;;;9.90;;
912;SDS011;443;51.448;7.028;2023-10-09T15:25:33;15.70;;;11.10;;
912;SDS011;443;51.448;7.028;2023-10-09T15:28:00;13.60;;;9.60;;
912;SDS011;443;51.448;7.028;2023-10-09T15:30:28;8.47;;;5.80;;
912;SDS011;443;51.448;7.028;2023-10-09T15:32:56;11.07;;;6.23;;
912;SDS011;443;51.448;7.028;2023-10-09T15:35:23;24.13;;;13.27;;
912;SDS011;443;51.448;7.028;2023-10-09T15:37:50;21.47;;;10.13;;
912;SDS011;443;51.448;7.028;2023-10-09T15:40:18;14.33;;;9.37;;
912;SDS011;443;51.448;7.028;2023-10-09T15:42:50;15.60;;;10.77;;
912;SDS011;443;51.448;7.028;2023-10-09T15:45:21;17.17;;;10.03;;
912;SDS011;443;51.448;7.028;2023-10-09T15:47:47;16.80;;;11.50;;
912;SDS011;443;51.448;7.028;2023-10-09T15:50:16;21.20;;;12.73;;
912;SDS011;443;51.448;7.028;2023-10-09T15:52:43;8.50;;;7.37;;
912;SDS011;443;51.448;7.028;2023-10-09T15:55:12;15.77;;;11.33;;
912;SDS011;443;51.448;7.028;2023-10-09T15:57:39;14.73;;;11.80;;
912;SDS011;443;51.448;7.028;2023-10-09T16:00:08;17.87;;;11.23;;
912;SDS011;443;51.448;7.028;2023-10-09T16:02:42;19.53;;;13.40;;
912;SDS011;443;51.448;7.028;2023-10-09T16:05:10;17.53;;;11.00;;
912;SDS011;443;51.448;7.028;2023-10-09T16:07:38;17.40;;;11.27;;
912;SDS011;443;51.448;7.028;2023-10-09T16:10:05;14.43;;;11.10;;
912;SDS011;443;51.448;7.028;2023-10-09T16:12:33;18.70;;;12.97;;
912;SDS011;443;51.448;7.028;2023-10-09T16:15:00;25.23;;;13.30;;
912;SDS011;443;51.448;7.028;2023-10-09T16:17:31;18.00;;;10.37;;
912;SDS011;443;51.448;7.028;2023-10-09T16:19:58;17.00;;;10.90;;
912;SDS011;443;51.448;7.028;2023-10-09T16:22:25;20.33;;;11.80;;